INFORMACIÓN METAR y TAF
METAR FOR LIRP
ADDS - METARS form results

(0548 UTC 28 February 2021)
Data provider http://aviationweather.gov/metar/data/
 
METAR text: LIRP 280515Z 12015KT CAVOK 09/M00 Q1026 NOSIG
Conditions at: LIRP (PISA (CIV/IT-AFB, IT) observed 0515 UTC 28 February 2021
Temperature: 9.0°C (48°F)
Dewpoint: 0.0°C (32°F) [RH = 53%]
Pressure (altimeter): 30.30 inches Hg (1026.0 mb)
Winds: from the ESE (120 degrees) at 17 MPH (15 knots; 7.7 m/s)
Visibility: 6 or more miles (10+ km)
Ceiling: ceiling and visibility are OK
Clouds: unknown
Weather: no significant weather observed at this time

Forecast for: LIRP (PISA (CIV/IT-AFB, IT)
Text: TAF LIRP 280500Z 2806/0106 10010KT CAVOK
Forecast period: 0600 UTC 28 February 2021 to 0600 UTC 01 March 2021
Forecast type: FROM: standard forecast or significant change
Winds: from the E (100 degrees) at 12 MPH (10 knots; 5.1 m/s)
Visibility: 6 or more miles (10+ km)
Ceiling: unknown
Clouds: missing
Weather: NSW  (no significant weather)
Text: TEMPO 2806/2809 10015G25KT
Forecast period: 0600 to 0900 UTC 28 February 2021
Forecast type: TEMPORARY: The following changes expected for less than half the time period
Winds: from the E (100 degrees) at 17 MPH (15 knots; 7.7 m/s)
gusting to 29 MPH (25 knots; 12.9 m/s)
Visibility: missing
Ceiling: unknown
Clouds: missing
Weather: no significant weather forecast for this period

 MAPA DE AEROPUERTO

 INFORMACIÓN DE PISTA